Time;durP1;ratioP1;P1;durP2;ratioP2;P2;SDS_P1;SDS_P2;PMS_P1;PMS_P2;Temp;Humidity;BMP_temperature;BMP_pressure;BME280_temperature;BME280_humidity;BME280_pressure;Samples;Min_cycle;Max_cycle;Signal;HPM_P1;HPM_P2
2022/03/24 00:02:06;;;;;;;62.87;44.63;;;6.90;99.90;;;;;;6250581;22;20058;-87
2022/03/24 00:04:32;;;;;;;62.80;44.25;;;6.90;99.90;;;;;;6225572;22;20016;-87
2022/03/24 00:06:57;;;;;;;61.33;42.63;;;6.90;99.90;;;;;;6250871;22;20090;-87
2022/03/24 00:09:23;;;;;;;57.20;41.20;;;6.90;99.90;;;;;;6250997;22;20020;-87
2022/03/24 00:11:49;;;;;;;56.50;38.70;;;6.90;99.90;;;;;;6250791;22;20016;-89
2022/03/24 00:14:16;;;;;;;58.80;40.53;;;6.90;99.90;;;;;;6225378;22;20012;-87
2022/03/24 00:16:43;;;;;;;53.83;38.60;;;6.90;99.90;;;;;;6225071;22;20050;-85
2022/03/24 00:19:09;;;;;;;50.45;35.72;;;6.90;99.90;;;;;;6225060;22;20015;-87
2022/03/24 00:21:35;;;;;;;47.43;34.17;;;6.90;99.90;;;;;;6257589;22;20018;-90
2022/03/24 00:24:01;;;;;;;45.22;32.50;;;6.70;99.90;;;;;;6276711;22;20019;-88
2022/03/24 00:26:27;;;;;;;38.83;30.40;;;6.70;99.90;;;;;;6251335;22;20039;-84
2022/03/24 00:28:53;;;;;;;43.03;31.50;;;6.60;99.90;;;;;;6251486;22;20319;-88
2022/03/24 00:31:19;;;;;;;54.57;38.50;;;6.50;99.90;;;;;;6276454;22;20250;-93
2022/03/24 00:33:45;;;;;;;49.33;37.38;;;6.50;99.90;;;;;;6276807;22;20045;-90
2022/03/24 00:36:12;;;;;;;47.97;35.45;;;6.50;99.90;;;;;;6276742;22;20023;-88
2022/03/24 00:38:38;;;;;;;39.60;27.95;;;6.50;99.90;;;;;;6276539;22;20015;-86
2022/03/24 00:41:04;;;;;;;40.47;30.75;;;6.50;99.90;;;;;;6276422;22;20041;-89
2022/03/24 00:43:30;;;;;;;48.60;33.85;;;6.50;99.90;;;;;;6277774;22;20516;-90
2022/03/24 00:45:57;;;;;;;44.17;33.42;;;6.50;99.90;;;;;;6276438;22;20019;-85
2022/03/24 00:48:24;;;;;;;48.75;35.10;;;6.40;99.90;;;;;;6277992;22;20022;-91
2022/03/24 00:50:50;;;;;;;;;;;6.30;99.90;;;;;;6278316;22;20015;-92
2022/03/24 00:53:16;;;;;;;40.03;28.95;;;6.30;99.90;;;;;;6276311;22;19926;-86
2022/03/24 00:55:43;;;;;;;39.17;27.87;;;6.20;99.90;;;;;;6276306;22;20090;-89
2022/03/24 00:58:08;;;;;;;;;;;6.10;99.90;;;;;;6276907;22;20115;-92
2022/03/24 01:00:36;;;;;;;36.20;26.35;;;6.00;99.90;;;;;;6275986;22;19959;-88
2022/03/24 01:03:06;;;;;;;38.90;28.45;;;5.90;99.90;;;;;;6277898;22;20027;-87
2022/03/24 01:05:37;;;;;;;37.63;26.85;;;5.90;99.90;;;;;;6276377;22;20488;-86
2022/03/24 01:08:05;;;;;;;38.78;28.33;;;5.90;99.90;;;;;;6277535;22;20108;-86
2022/03/24 01:10:31;;;;;;;39.58;27.88;;;5.90;99.90;;;;;;6276308;22;20012;-89
2022/03/24 01:13:00;;;;;;;42.08;31.33;;;5.80;99.90;;;;;;6276102;22;20095;-89
2022/03/24 01:15:27;;;;;;;39.63;30.23;;;5.80;99.90;;;;;;6250585;22;20047;-90
2022/03/24 01:17:53;;;;;;;36.30;26.88;;;5.80;99.90;;;;;;6275935;22;20103;-90
2022/03/24 01:20:19;;;;;;;33.92;25.85;;;5.70;99.90;;;;;;6250615;22;20026;-84
2022/03/24 01:22:45;;;;;;;35.42;27.73;;;5.80;99.90;;;;;;6281182;22;20050;-92
2022/03/24 01:25:12;;;;;;;34.15;25.80;;;5.70;99.90;;;;;;6255502;22;20058;-89
2022/03/24 01:27:38;;;;;;;37.53;27.33;;;5.70;99.90;;;;;;6280685;22;20023;-89
2022/03/24 01:30:08;;;;;;;42.07;29.77;;;5.70;99.90;;;;;;6280924;22;20015;-90
2022/03/24 01:32:35;;;;;;;48.60;34.50;;;5.70;99.90;;;;;;6280976;22;20023;-89
2022/03/24 01:35:01;;;;;;;58.30;40.35;;;5.60;99.90;;;;;;6281163;22;20079;-90
2022/03/24 01:37:27;;;;;;;58.78;40.17;;;5.60;99.90;;;;;;6281077;22;20019;-87
2022/03/24 01:39:53;;;;;;;63.87;40.17;;;5.60;99.90;;;;;;6281128;22;20041;-88
2022/03/24 01:42:20;;;;;;;53.87;38.43;;;5.60;99.90;;;;;;6308244;22;20077;-87
2022/03/24 01:44:46;;;;;;;50.50;35.45;;;5.60;99.90;;;;;;6306737;22;20146;-88
2022/03/24 01:47:13;;;;;;;49.42;35.60;;;5.60;99.90;;;;;;6308329;22;20086;-86
2022/03/24 01:49:42;;;;;;;50.10;35.13;;;5.60;99.90;;;;;;6308382;22;20019;-85
2022/03/24 01:52:18;;;;;;;44.42;31.73;;;5.60;99.90;;;;;;6280972;22;20007;-91
2022/03/24 01:54:51;;;;;;;43.03;31.40;;;5.60;99.90;;;;;;6280697;22;20096;-87
2022/03/24 01:57:18;;;;;;;41.13;30.27;;;5.50;99.90;;;;;;6308162;22;20007;-87
2022/03/24 01:59:43;;;;;;;;;;;5.40;99.90;;;;;;6281365;22;20026;-86
2022/03/24 02:05:39;;;;;;;46.70;32.50;;;5.40;99.90;;;;;;6276941;22;20019;-85
2022/03/24 02:08:34;;;;;;;33.38;25.08;;;5.40;99.90;;;;;;6250338;22;20016;-90
2022/03/24 02:11:00;;;;;;;33.50;24.88;;;5.40;99.90;;;;;;6250243;22;20022;-86
2022/03/24 02:13:26;;;;;;;32.43;23.90;;;5.30;99.90;;;;;;6277136;22;20043;-89
2022/03/24 02:15:51;;;;;;;37.20;26.37;;;5.30;99.90;;;;;;6276976;22;20023;-87
2022/03/24 02:18:17;;;;;;;37.80;29.30;;;5.30;99.90;;;;;;6250113;22;20011;-88
2022/03/24 02:20:43;;;;;;;36.77;28.60;;;5.20;99.90;;;;;;6277289;22;20077;-86
2022/03/24 02:23:15;;;;;;;37.10;28.67;;;5.20;99.90;;;;;;6277650;22;20016;-85
2022/03/24 02:25:42;;;;;;;34.75;25.92;;;5.10;99.90;;;;;;6249817;22;20018;-90
2022/03/24 02:28:08;;;;;;;32.47;24.58;;;5.10;99.90;;;;;;6224721;22;20062;-88
2022/03/24 02:30:35;;;;;;;38.90;28.20;;;5.20;99.90;;;;;;6250049;22;20020;-85
2022/03/24 02:33:01;;;;;;;35.97;27.23;;;5.10;99.90;;;;;;6277004;22;20023;-87
2022/03/24 02:35:27;;;;;;;41.27;29.43;;;5.10;99.90;;;;;;6250145;22;20090;-88
2022/03/24 02:37:52;;;;;;;35.47;26.33;;;5.10;99.90;;;;;;6276880;22;20020;-90
2022/03/24 02:40:19;;;;;;;37.10;25.70;;;5.20;99.90;;;;;;6278988;22;20098;-87
2022/03/24 02:42:46;;;;;;;;;;;5.20;99.90;;;;;;6252733;22;20020;-84
2022/03/24 02:45:11;;;;;;;37.97;27.27;;;5.20;99.90;;;;;;6252148;22;19922;-85
2022/03/24 02:47:38;;;;;;;37.90;28.67;;;5.10;99.90;;;;;;6278790;22;20016;-85
2022/03/24 02:50:04;;;;;;;39.15;28.85;;;5.20;99.90;;;;;;6278921;22;20020;-85
2022/03/24 02:52:30;;;;;;;38.50;27.08;;;5.10;99.90;;;;;;6278821;22;20022;-89
2022/03/24 02:54:56;;;;;;;32.30;22.93;;;5.10;99.90;;;;;;6251745;22;20386;-88
2022/03/24 02:57:22;;;;;;;22.77;17.47;;;5.10;99.90;;;;;;6279001;22;20016;-91
2022/03/24 02:59:47;;;;;;;19.13;15.93;;;5.10;99.90;;;;;;6226573;22;20016;-91
2022/03/24 03:02:17;;;;;;;18.67;14.90;;;5.00;99.90;;;;;;6278906;22;20024;-90
2022/03/24 03:04:44;;;;;;;25.48;19.00;;;5.00;99.90;;;;;;6251439;22;20026;-89
2022/03/24 03:07:11;;;;;;;28.65;20.70;;;5.00;99.90;;;;;;6278979;22;20019;-91
2022/03/24 03:09:37;;;;;;;;;;;5.00;99.90;;;;;;6279470;22;20038;-91
2022/03/24 03:12:04;;;;;;;30.00;20.80;;;4.90;99.90;;;;;;6251871;22;19977;-87
2022/03/24 03:14:30;;;;;;;28.23;22.38;;;4.90;99.90;;;;;;6251774;22;20015;-90
2022/03/24 03:16:58;;;;;;;30.70;23.97;;;4.90;99.90;;;;;;6251942;22;20011;-90
2022/03/24 03:19:24;;;;;;;28.52;21.40;;;4.90;99.90;;;;;;6251801;22;20057;-85
2022/03/24 03:21:50;;;;;;;33.13;23.63;;;4.90;99.90;;;;;;6278753;22;20019;-87
2022/03/24 03:24:18;;;;;;;31.27;23.67;;;4.80;99.90;;;;;;6278788;22;20046;-89
2022/03/24 03:26:44;;;;;;;22.90;17.90;;;4.80;99.90;;;;;;6278968;22;20023;-88
2022/03/24 03:29:11;;;;;;;27.20;20.13;;;4.70;99.90;;;;;;6279035;22;20437;-90
2022/03/24 03:31:37;;;;;;;;;;;4.70;99.90;;;;;;6252149;22;20339;-90
2022/03/24 03:34:07;;;;;;;34.95;25.10;;;4.70;99.90;;;;;;6278488;22;19915;-89
2022/03/24 03:36:37;;;;;;;30.98;22.65;;;4.70;99.90;;;;;;6278641;22;20053;-89
2022/03/24 03:39:04;;;;;;;33.58;24.77;;;4.70;99.90;;;;;;6251361;22;20016;-89
2022/03/24 03:41:30;;;;;;;29.63;22.23;;;4.70;99.90;;;;;;6278310;22;20022;-92
2022/03/24 03:43:56;;;;;;;29.98;21.75;;;4.70;99.90;;;;;;6251614;22;20437;-89
2022/03/24 03:46:23;;;;;;;27.70;20.40;;;4.70;99.90;;;;;;6278653;22;20070;-88
2022/03/24 03:48:49;;;;;;;29.35;20.55;;;4.60;99.90;;;;;;6251366;22;20019;-87
2022/03/24 03:51:15;;;;;;;29.73;21.52;;;4.50;99.90;;;;;;6251343;22;20089;-90
2022/03/24 03:53:42;;;;;;;26.08;19.05;;;4.30;99.90;;;;;;6278590;22;20014;-87
2022/03/24 03:56:08;;;;;;;23.02;18.58;;;4.30;99.90;;;;;;6251097;22;20348;-85
2022/03/24 03:58:35;;;;;;;20.85;17.33;;;4.20;99.90;;;;;;6278558;22;20043;-86
2022/03/24 04:01:02;;;;;;;21.92;17.85;;;4.10;99.90;;;;;;6250899;22;20020;-86
2022/03/24 04:03:30;;;;;;;18.95;15.77;;;4.10;99.90;;;;;;6250988;22;20452;-86
2022/03/24 04:05:58;;;;;;;21.40;17.52;;;4.10;99.90;;;;;;6251271;22;20074;-91
2022/03/24 04:08:24;;;;;;;24.20;18.95;;;4.10;99.90;;;;;;6250929;22;20019;-89
2022/03/24 04:10:51;;;;;;;24.80;18.92;;;4.10;99.90;;;;;;6251130;22;20019;-89
2022/03/24 04:13:20;;;;;;;26.98;20.65;;;4.20;99.90;;;;;;6251248;22;20027;-88
2022/03/24 04:15:46;;;;;;;27.85;21.13;;;4.20;99.90;;;;;;6251406;22;20441;-89
2022/03/24 04:18:13;;;;;;;34.60;25.08;;;4.20;99.90;;;;;;6251223;22;20456;-87
2022/03/24 04:20:39;;;;;;;24.73;19.08;;;4.20;99.90;;;;;;6250986;22;20076;-86
2022/03/24 04:23:05;;;;;;;22.20;18.10;;;4.20;99.90;;;;;;6251336;22;20016;-88
2022/03/24 04:25:32;;;;;;;30.45;23.02;;;4.30;99.90;;;;;;6278206;22;20375;-92
2022/03/24 04:27:58;;;;;;;46.25;31.35;;;4.30;99.90;;;;;;6251361;22;20026;-91
2022/03/24 04:30:27;;;;;;;32.80;23.70;;;4.30;99.90;;;;;;6225601;22;20348;-87
2022/03/24 04:32:54;;;;;;;25.20;19.63;;;4.30;99.90;;;;;;6251053;22;20012;-82
2022/03/24 04:35:20;;;;;;;26.50;20.45;;;4.30;99.90;;;;;;6251290;22;20011;-91
2022/03/24 04:37:47;;;;;;;30.27;21.88;;;4.30;99.90;;;;;;6278016;22;20086;-86
2022/03/24 04:40:16;;;;;;;;;;;4.30;99.90;;;;;;6251288;22;20475;-88
2022/03/24 04:42:46;;;;;;;36.70;25.45;;;4.30;99.90;;;;;;6225954;22;19972;-88
2022/03/24 04:45:13;;;;;;;30.30;22.23;;;4.30;99.90;;;;;;6278077;22;20011;-86
2022/03/24 04:47:42;;;;;;;37.80;27.25;;;4.30;99.90;;;;;;6225465;22;20019;-86
2022/03/24 04:50:09;;;;;;;37.08;25.70;;;4.30;99.90;;;;;;6250822;22;20073;-86
2022/03/24 04:52:34;;;;;;;37.97;27.17;;;4.20;99.90;;;;;;6250605;22;20020;-88
2022/03/24 04:55:00;;;;;;;39.03;28.97;;;4.20;99.90;;;;;;6277880;22;20012;-85
2022/03/24 04:57:27;;;;;;;37.33;27.00;;;4.20;99.90;;;;;;6250508;22;20026;-87
2022/03/24 04:59:53;;;;;;;38.97;29.60;;;4.20;99.90;;;;;;6277556;22;20581;-87
2022/03/24 05:02:19;;;;;;;36.05;26.85;;;4.20;99.90;;;;;;6250622;22;20345;-89
2022/03/24 05:04:45;;;;;;;39.27;27.83;;;4.20;99.90;;;;;;6277431;22;20011;-89
2022/03/24 05:07:11;;;;;;;37.20;27.80;;;4.20;99.90;;;;;;6250785;22;20020;-90
2022/03/24 05:09:38;;;;;;;35.70;26.75;;;4.20;99.90;;;;;;6250569;22;20255;-90
2022/03/24 05:12:04;;;;;;;37.60;27.10;;;4.20;99.90;;;;;;6277612;22;20386;-90
2022/03/24 05:14:31;;;;;;;36.13;26.85;;;4.10;99.90;;;;;;6250448;22;20058;-87
2022/03/24 05:16:57;;;;;;;29.38;22.48;;;4.20;99.90;;;;;;6277307;22;20016;-89
2022/03/24 05:19:23;;;;;;;29.67;22.58;;;4.10;99.90;;;;;;6250418;22;20016;-88
2022/03/24 05:21:58;;;;;;;33.70;24.60;;;4.10;99.90;;;;;;6277435;22;20077;-86
2022/03/24 05:24:24;;;;;;;45.47;33.08;;;4.10;99.90;;;;;;6249675;22;20020;-86
2022/03/24 05:26:50;;;;;;;45.70;33.30;;;4.10;99.90;;;;;;6250201;22;20445;-86
2022/03/24 05:29:15;;;;;;;43.80;30.43;;;4.10;99.90;;;;;;6249820;22;20054;-83
2022/03/24 05:31:41;;;;;;;43.22;29.33;;;4.20;99.90;;;;;;6247762;22;20357;-83
2022/03/24 05:34:06;;;;;;;43.42;29.77;;;4.20;99.90;;;;;;6223298;22;20027;-85
2022/03/24 05:36:38;;;;;;;42.45;29.25;;;4.20;99.90;;;;;;6224783;22;20007;-88
2022/03/24 05:39:23;;;;;;;42.50;30.50;;;4.20;99.90;;;;;;6249935;22;20018;-84
2022/03/24 05:42:02;;;;;;;41.17;30.27;;;4.20;99.90;;;;;;6224914;22;20047;-89
2022/03/24 05:44:29;;;;;;;27.60;22.98;;;4.20;99.90;;;;;;6224751;22;20441;-86
2022/03/24 05:46:55;;;;;;;;;;;4.20;99.90;;;;;;6225072;22;20436;-90
2022/03/24 05:49:21;;;;;;;19.58;17.58;;;4.20;99.90;;;;;;6250207;22;19915;-84
2022/03/24 05:51:52;;;;;;;19.57;17.47;;;4.20;99.90;;;;;;6224749;22;20016;-88
2022/03/24 05:54:18;;;;;;;21.23;18.90;;;4.20;99.90;;;;;;6250273;22;20034;-88
2022/03/24 05:56:45;;;;;;;19.20;16.87;;;4.20;99.90;;;;;;6250228;22;20020;-86
2022/03/24 05:59:12;;;;;;;19.27;17.27;;;4.10;99.90;;;;;;6250261;22;20342;-89
2022/03/24 06:01:40;;;;;;;19.70;17.65;;;4.10;99.90;;;;;;6225256;22;20015;-88
2022/03/24 06:04:07;;;;;;;34.92;23.58;;;4.10;99.90;;;;;;6224238;22;20061;-87
2022/03/24 06:06:37;;;;;;;22.50;20.13;;;4.10;99.90;;;;;;6225321;22;20081;-86
2022/03/24 06:09:05;;;;;;;20.05;17.88;;;4.10;99.90;;;;;;6249425;22;20015;-85
2022/03/24 06:11:35;;;;;;;20.05;18.13;;;4.10;99.90;;;;;;6224337;22;20043;-88
2022/03/24 06:14:07;;;;;;;20.92;18.77;;;4.20;99.90;;;;;;6224629;22;20024;-86
2022/03/24 06:16:40;;;;;;;20.08;18.05;;;4.20;99.90;;;;;;6249629;22;20023;-85
2022/03/24 06:19:06;;;;;;;23.02;19.55;;;4.30;99.90;;;;;;6222562;22;20016;-85
2022/03/24 06:21:32;;;;;;;21.23;18.90;;;4.30;99.90;;;;;;6221676;22;20023;-84
2022/03/24 06:23:58;;;;;;;20.90;18.77;;;4.30;99.90;;;;;;6224647;22;20019;-85
2022/03/24 06:26:23;;;;;;;18.63;16.83;;;4.40;99.90;;;;;;6248813;22;20015;-85
2022/03/24 06:28:50;;;;;;;23.80;21.27;;;4.50;99.90;;;;;;6224095;22;20463;-87
2022/03/24 06:31:16;;;;;;;32.50;25.48;;;4.50;99.90;;;;;;6223987;22;20448;-84
2022/03/24 06:34:00;;;;;;;24.98;22.27;;;4.60;99.90;;;;;;6277079;22;20020;-86
2022/03/24 06:36:36;;;;;;;26.67;22.70;;;4.70;99.90;;;;;;6223943;22;20011;-84
2022/03/24 06:39:02;;;;;;;21.73;19.48;;;4.90;99.90;;;;;;6224383;22;20020;-85
2022/03/24 06:41:28;;;;;;;26.40;23.55;;;5.00;99.90;;;;;;6249353;22;20016;-84
2022/03/24 06:43:56;;;;;;;25.48;22.27;;;5.10;99.90;;;;;;6249596;22;20020;-84
2022/03/24 06:46:22;;;;;;;37.78;28.83;;;5.20;99.90;;;;;;6224013;22;20016;-84
2022/03/24 06:48:48;;;;;;;55.70;40.60;;;5.40;99.90;;;;;;6249186;22;20054;-85
2022/03/24 06:51:23;;;;;;;52.27;36.97;;;5.70;99.90;;;;;;6250105;22;20352;-85
2022/03/24 06:53:49;;;;;;;48.35;32.58;;;6.00;99.90;;;;;;6224549;22;20337;-85
2022/03/24 06:56:15;;;;;;;46.53;33.00;;;6.40;99.90;;;;;;6249027;22;20431;-84
2022/03/24 06:58:43;;;;;;;39.03;29.63;;;6.80;99.90;;;;;;6276293;22;20100;-85
2022/03/24 07:01:26;;;;;;;38.28;29.95;;;7.10;99.90;;;;;;6249238;22;20066;-84
2022/03/24 07:04:02;;;;;;;35.22;27.00;;;7.40;99.90;;;;;;6218386;23;20103;-84
2022/03/24 07:06:38;;;;;;;38.85;30.65;;;7.70;99.90;;;;;;6244121;23;20473;-85
2022/03/24 07:09:03;;;;;;;43.95;32.78;;;8.00;99.90;;;;;;6218750;23;20027;-84
2022/03/24 07:11:29;;;;;;;54.90;41.80;;;8.40;99.90;;;;;;6244256;23;20469;-85
2022/03/24 07:13:55;;;;;;;59.73;43.97;;;8.50;99.90;;;;;;6244107;23;20020;-85
2022/03/24 07:16:21;;;;;;;67.57;48.30;;;8.60;99.90;;;;;;6219025;23;20016;-86
2022/03/24 07:18:46;;;;;;;75.60;53.50;;;8.80;99.90;;;;;;6245669;22;20024;-86
2022/03/24 07:21:13;;;;;;;65.23;47.63;;;9.10;99.90;;;;;;6244076;23;20071;-86
2022/03/24 07:23:39;;;;;;;61.20;44.33;;;9.10;99.90;;;;;;6245829;22;20124;-85
2022/03/24 07:26:05;;;;;;;64.53;47.37;;;9.20;99.90;;;;;;6246954;23;20025;-86
2022/03/24 07:28:31;;;;;;;65.50;46.77;;;9.50;99.90;;;;;;6245672;23;20095;-85
2022/03/24 07:30:56;;;;;;;76.33;51.00;;;9.50;99.90;;;;;;6247552;23;20054;-85
2022/03/24 07:33:22;;;;;;;76.33;53.73;;;9.50;99.90;;;;;;6246107;23;20342;-85
2022/03/24 07:36:04;;;;;;;78.23;54.50;;;9.40;99.90;;;;;;6246437;23;20027;-84
2022/03/24 07:38:30;;;;;;;74.97;53.80;;;9.40;99.90;;;;;;6220528;23;20437;-85
2022/03/24 07:40:55;;;;;;;72.33;51.03;;;9.70;99.90;;;;;;6247370;22;20019;-85
2022/03/24 07:43:21;;;;;;;75.27;52.83;;;10.20;99.90;;;;;;6220462;23;20016;-86
2022/03/24 07:45:53;;;;;;;75.40;53.67;;;10.60;99.90;;;;;;6247301;23;20012;-86
2022/03/24 07:48:31;;;;;;;77.32;51.85;;;10.70;99.90;;;;;;6221028;23;20082;-86
2022/03/24 07:51:10;;;;;;;79.25;53.58;;;10.80;99.90;;;;;;6220518;23;20024;-86
2022/03/24 07:53:47;;;;;;;79.00;54.33;;;10.80;99.90;;;;;;6220363;23;20016;-87
2022/03/24 07:56:14;;;;;;;80.35;53.38;;;10.60;99.90;;;;;;6220339;23;20023;-87
2022/03/24 07:58:40;;;;;;;81.68;54.88;;;10.40;99.90;;;;;;6247037;22;20008;-85
2022/03/24 08:01:06;;;;;;;75.53;51.72;;;10.10;99.90;;;;;;6247111;22;20472;-86
2022/03/24 08:03:33;;;;;;;73.32;51.40;;;9.80;99.90;;;;;;6259225;22;20021;-86
2022/03/24 08:05:59;;;;;;;74.43;51.90;;;9.50;99.90;;;;;;6277713;22;20031;-87
2022/03/24 08:08:26;;;;;;;78.13;51.37;;;9.30;99.90;;;;;;6250368;22;20016;-85
2022/03/24 08:10:53;;;;;;;68.30;48.65;;;9.10;99.90;;;;;;6250463;22;20561;-85
2022/03/24 08:13:20;;;;;;;74.82;50.67;;;9.10;99.90;;;;;;6250249;22;20016;-87
2022/03/24 08:15:46;;;;;;;;;;;9.00;99.90;;;;;;6251067;22;20058;-85
2022/03/24 08:18:13;;;;;;;80.00;54.92;;;9.00;99.90;;;;;;6277573;22;19915;-85
2022/03/24 08:23:16;;;;;;;80.13;55.05;;;9.10;99.90;;;;;;6276617;22;20023;-85
2022/03/24 08:25:44;;;;;;;81.40;54.80;;;9.20;99.90;;;;;;6225740;22;20094;-85
2022/03/24 08:28:10;;;;;;;85.65;54.90;;;9.20;99.90;;;;;;6225313;22;20016;-84
2022/03/24 08:30:36;;;;;;;84.00;52.53;;;9.30;99.90;;;;;;6224841;22;20016;-86
2022/03/24 08:33:03;;;;;;;84.17;55.10;;;9.40;99.90;;;;;;6224904;22;20012;-85
2022/03/24 08:35:30;;;;;;;;;;;9.50;99.90;;;;;;6225431;22;20011;-85
2022/03/24 08:38:43;;;;;;;80.10;53.53;;;9.50;99.90;;;;;;6250071;22;19911;-85
2022/03/24 08:41:14;;;;;;;82.75;54.03;;;9.50;99.90;;;;;;6225442;22;20016;-86
2022/03/24 08:43:39;;;;;;;73.82;50.47;;;9.60;99.90;;;;;;6249578;22;20022;-85
2022/03/24 08:46:08;;;;;;;77.87;52.57;;;9.60;99.90;;;;;;6225001;22;20011;-85
2022/03/24 08:48:35;;;;;;;79.05;53.05;;;9.70;99.90;;;;;;6224695;22;20365;-85
2022/03/24 08:51:01;;;;;;;77.65;53.60;;;9.80;99.90;;;;;;6225011;22;20012;-83
2022/03/24 08:53:27;;;;;;;81.40;53.42;;;9.80;99.90;;;;;;6224637;22;20484;-84
2022/03/24 08:55:52;;;;;;;71.50;50.07;;;9.90;99.90;;;;;;6224715;22;20015;-84
2022/03/24 08:58:18;;;;;;;78.73;53.40;;;10.00;99.90;;;;;;6224627;22;20471;-85
2022/03/24 09:00:48;;;;;;;75.67;51.57;;;10.10;99.90;;;;;;6250128;22;20101;-85
2022/03/24 09:03:14;;;;;;;69.78;49.60;;;10.10;99.90;;;;;;6249769;22;20022;-84
2022/03/24 09:05:41;;;;;;;73.27;49.33;;;10.20;99.90;;;;;;6250235;22;20086;-84
2022/03/24 09:08:06;;;;;;;;;;;10.30;99.90;;;;;;6250242;22;20353;-85
2022/03/24 09:10:38;;;;;;;79.50;51.33;;;10.40;99.90;;;;;;6250706;22;19922;-83
2022/03/24 09:13:03;;;;;;;75.07;53.50;;;10.50;99.90;;;;;;6249847;22;20019;-85
2022/03/24 09:15:29;;;;;;;79.60;52.03;;;10.60;99.90;;;;;;6249962;22;20015;-84
2022/03/24 09:17:55;;;;;;;73.53;49.87;;;10.70;99.90;;;;;;6249834;22;20332;-81
2022/03/24 09:20:25;;;;;;;76.70;50.63;;;10.90;99.90;;;;;;6224502;22;20012;-81
2022/03/24 09:22:53;;;;;;;71.25;48.28;;;10.90;99.90;;;;;;6255328;22;20020;-82
2022/03/24 09:25:33;;;;;;;75.47;48.78;;;11.00;99.90;;;;;;6224644;22;20058;-90
2022/03/24 09:27:58;;;;;;;73.40;47.97;;;11.10;99.90;;;;;;6249894;22;20020;-85
2022/03/24 09:30:24;;;;;;;70.27;47.80;;;11.20;99.90;;;;;;6276870;22;20019;-83
2022/03/24 09:32:51;;;;;;;66.37;47.63;;;11.30;99.90;;;;;;6249764;22;20102;-84
2022/03/24 09:35:16;;;;;;;;;;;11.40;99.90;;;;;;6249850;22;20022;-83
2022/03/24 09:37:42;;;;;;;65.43;45.83;;;11.50;99.90;;;;;;6276754;22;19915;-83
2022/03/24 09:40:10;;;;;;;66.90;46.13;;;11.60;99.90;;;;;;6275117;22;20027;-86
2022/03/24 09:42:35;;;;;;;68.07;47.60;;;11.70;99.90;;;;;;6224257;22;20322;-82
2022/03/24 09:45:03;;;;;;;72.30;47.92;;;11.90;99.90;;;;;;6249524;22;20023;-82
2022/03/24 09:47:30;;;;;;;74.72;48.75;;;12.00;99.90;;;;;;6249207;22;20022;-86
2022/03/24 09:49:56;;;;;;;;;;;12.20;99.90;;;;;;6250041;22;20109;-82
2022/03/24 09:52:22;;;;;;;72.18;48.85;;;12.20;99.90;;;;;;6224223;22;19911;-83
2022/03/24 09:54:51;;;;;;;72.57;47.75;;;12.40;99.90;;;;;;6249380;22;20098;-81
2022/03/24 09:57:17;;;;;;;75.35;49.15;;;12.50;99.90;;;;;;6249328;22;20011;-82
2022/03/24 09:59:44;;;;;;;73.83;49.20;;;12.60;99.90;;;;;;6250115;22;20345;-85
2022/03/24 10:02:10;;;;;;;;;;;12.70;99.90;;;;;;6277204;22;20437;-84
2022/03/24 10:04:53;;;;;;;72.57;49.08;;;12.80;99.90;;;;;;6276617;22;19986;-89
2022/03/24 10:07:25;;;;;;;70.90;49.40;;;13.00;99.90;;;;;;6249973;22;20015;-83
2022/03/24 10:09:53;;;;;;;69.93;46.95;;;13.10;99.90;;;;;;6249615;22;20059;-83
2022/03/24 10:12:37;;;;;;;68.10;46.45;;;13.20;99.90;;;;;;6276210;22;20512;-82
2022/03/24 10:15:07;;;;;;;71.63;48.90;;;13.30;99.90;;;;;;6276370;22;20449;-83
2022/03/24 10:17:36;;;;;;;74.03;48.10;;;13.30;99.90;;;;;;6276206;22;20086;-83
2022/03/24 10:20:08;;;;;;;74.22;50.65;;;13.40;99.90;;;;;;6248987;22;20016;-82
2022/03/24 10:22:36;;;;;;;69.68;49.33;;;13.50;99.90;;;;;;6276049;22;20010;-82
2022/03/24 10:25:17;;;;;;;71.97;48.15;;;13.60;99.90;;;;;;6249792;22;20019;-82
2022/03/24 10:27:43;;;;;;;68.25;46.50;;;13.70;99.90;;;;;;6249101;22;20023;-81
2022/03/24 10:30:10;;;;;;;63.80;45.88;;;13.80;99.90;;;;;;6224340;22;20011;-83
2022/03/24 10:32:36;;;;;;;67.65;46.33;;;13.90;99.90;;;;;;6276384;22;20071;-88
2022/03/24 10:35:10;;;;;;;70.03;44.77;;;14.00;99.90;;;;;;6276358;22;20016;-82
2022/03/24 10:37:37;;;;;;;64.75;45.50;;;14.10;99.90;;;;;;6276539;22;20012;-84
2022/03/24 10:40:05;;;;;;;;;;;14.20;99.90;;;;;;6249970;22;20045;-81
2022/03/24 10:42:33;;;;;;;65.57;43.95;;;14.30;99.90;;;;;;6249128;22;19915;-81
2022/03/24 10:45:19;;;;;;;63.28;44.80;;;14.40;99.90;;;;;;6250197;22;20012;-82
2022/03/24 10:47:56;;;;;;;61.17;42.53;;;14.50;99.90;;;;;;6224434;22;20019;-90
2022/03/24 10:50:37;;;;;;;60.67;42.85;;;14.60;99.90;;;;;;6276689;22;20017;-88
2022/03/24 10:53:08;;;;;;;56.85;39.45;;;14.70;99.00;;;;;;6224110;22;20074;-91
2022/03/24 10:55:44;;;;;;;54.70;39.10;;;14.80;97.90;;;;;;6276385;22;20015;-91
2022/03/24 10:58:40;;;;;;;52.97;37.00;;;14.80;96.50;;;;;;6249132;22;20012;-85
2022/03/24 11:01:08;;;;;;;55.40;39.00;;;14.90;95.20;;;;;;6250614;22;20016;-85
2022/03/24 11:03:34;;;;;;;51.08;34.60;;;14.90;94.50;;;;;;6278419;22;20035;-87
2022/03/24 11:06:11;;;;;;;58.47;37.22;;;15.00;93.70;;;;;;6251107;22;20446;-83
2022/03/24 11:08:37;;;;;;;53.38;36.35;;;15.00;92.70;;;;;;6277831;22;20142;-85
2022/03/24 11:11:29;;;;;;;51.92;33.70;;;15.00;92.40;;;;;;6250593;22;20019;-83
2022/03/24 11:14:02;;;;;;;48.70;33.08;;;15.10;92.00;;;;;;6243973;22;20046;-87
2022/03/24 11:16:36;;;;;;;50.58;34.38;;;15.10;90.80;;;;;;6249373;22;20023;-83
2022/03/24 11:19:13;;;;;;;51.10;34.72;;;15.20;90.20;;;;;;6277719;22;20015;-87
2022/03/24 11:21:48;;;;;;;51.72;35.55;;;15.30;89.70;;;;;;6278279;22;20012;-83
2022/03/24 11:24:13;;;;;;;57.58;39.05;;;15.30;90.00;;;;;;6250998;22;20034;-83
2022/03/24 11:26:39;;;;;;;55.53;39.60;;;15.30;90.10;;;;;;6278519;22;20015;-85
2022/03/24 11:29:05;;;;;;;55.73;40.67;;;15.40;90.40;;;;;;6250684;22;20070;-87
2022/03/24 11:31:32;;;;;;;52.92;38.78;;;15.40;90.20;;;;;;6250960;22;20012;-86
2022/03/24 11:34:00;;;;;;;56.47;40.40;;;15.50;90.00;;;;;;6277940;22;20019;-83
2022/03/24 11:36:28;;;;;;;58.08;39.85;;;15.50;89.30;;;;;;6225664;22;20011;-90
2022/03/24 11:38:59;;;;;;;58.22;40.53;;;15.50;89.00;;;;;;6250958;22;20082;-84
2022/03/24 11:41:44;;;;;;;54.22;39.08;;;15.50;87.60;;;;;;6250801;22;20322;-83
2022/03/24 11:44:16;;;;;;;57.85;40.58;;;15.50;88.00;;;;;;6277696;22;20532;-83
2022/03/24 11:46:47;;;;;;;57.20;40.72;;;15.50;87.70;;;;;;6276807;22;20034;-83
2022/03/24 11:49:19;;;;;;;58.88;40.13;;;15.50;86.70;;;;;;6278060;22;20015;-87
2022/03/24 11:51:47;;;;;;;56.88;41.42;;;15.50;86.30;;;;;;6250581;22;20016;-82
2022/03/24 11:54:32;;;;;;;55.50;40.25;;;15.50;85.90;;;;;;6250599;22;20457;-87
2022/03/24 11:57:35;;;;;;;53.35;39.85;;;15.60;85.60;;;;;;6250667;22;20016;-84
2022/03/24 12:00:13;;;;;;;57.63;40.47;;;15.60;85.40;;;;;;6250923;22;20453;-83
2022/03/24 12:02:40;;;;;;;59.15;45.75;;;15.60;83.80;;;;;;6251054;22;20024;-87
2022/03/24 12:05:07;;;;;;;50.75;36.78;;;15.60;83.40;;;;;;6278016;22;20015;-85
2022/03/24 12:07:33;;;;;;;54.20;39.15;;;15.60;82.30;;;;;;6250768;22;20078;-82
2022/03/24 12:10:02;;;;;;;55.73;36.00;;;15.60;82.00;;;;;;6225047;22;20012;-88
2022/03/24 12:12:29;;;;;;;57.65;38.92;;;15.60;81.10;;;;;;6277559;22;20246;-82
2022/03/24 12:14:56;;;;;;;50.42;34.38;;;15.60;79.90;;;;;;6277666;22;20054;-80
2022/03/24 12:17:30;;;;;;;54.50;36.33;;;15.70;79.00;;;;;;6250721;22;20018;-82
2022/03/24 12:19:59;;;;;;;50.35;33.75;;;15.70;77.20;;;;;;6277539;22;20091;-82
2022/03/24 12:22:25;;;;;;;49.50;33.33;;;15.70;76.80;;;;;;6250441;22;20101;-88
2022/03/24 12:25:00;;;;;;;49.58;33.17;;;15.80;76.10;;;;;;6249419;22;20023;-86
2022/03/24 12:27:27;;;;;;;44.88;31.05;;;15.80;74.50;;;;;;6277311;22;20031;-83
2022/03/24 12:30:13;;;;;;;44.40;31.50;;;15.80;73.00;;;;;;6277509;22;20384;-83
2022/03/24 12:32:40;;;;;;;44.45;31.58;;;15.80;71.60;;;;;;6249893;22;20094;-84
2022/03/24 12:35:07;;;;;;;44.92;31.48;;;15.80;70.90;;;;;;6248495;22;20012;-88
2022/03/24 12:37:33;;;;;;;44.08;30.77;;;15.80;69.70;;;;;;6274304;22;20022;-84
2022/03/24 12:40:11;;;;;;;40.55;29.45;;;15.80;68.90;;;;;;6249259;22;20345;-86
2022/03/24 12:42:54;;;;;;;45.50;31.25;;;15.90;67.90;;;;;;6276055;22;20023;-84
2022/03/24 12:45:23;;;;;;;45.80;31.63;;;15.80;67.90;;;;;;6250374;22;20011;-90
2022/03/24 12:47:55;;;;;;;45.67;33.03;;;15.80;67.40;;;;;;6251145;22;20416;-87
2022/03/24 12:50:21;;;;;;;46.10;33.00;;;15.90;66.50;;;;;;6249923;22;20087;-92
2022/03/24 12:53:03;;;;;;;43.83;32.70;;;15.80;66.30;;;;;;6225302;22;20074;-87